DAL9572 TXKF-MTPP
Flight info
| Callsign | DAL9572 |
|---|---|
| Flight time | 2h 42m |
| Altitude | 34000 |
| Route | SOMRR1 ANTIG M328 TASNI/M080F350 L455 MCOOP/M080F340 M594 MLLER/N0469F340 M594 CERDA A554 GTK G444 BOTES/N0442F240 G444 SEPTO DCT SEDET |
| Aircraft | A320/M-SDE3FGHIRWY/LB1 |
Departure
| Time | 2026-04-24 23:20 |
|---|---|
| Airport | L.F. Wade International Airport (TXKF) |
Arrival
| Time | 2026-04-25 02:02 |
|---|---|
| Airport | Toussaint Louverture International Airport (MTPP) |
| Time | Latitude | Longitude | Altitude | Speed | Heading |
|---|---|---|---|---|---|
| 2026-04-24 22:54 | 32.36229 | -64.70321 | 6 ft | 0 kts | 251° |
| 2026-04-24 23:05 | 32.36233 | -64.70305 | 4 ft | 2 kts | 229° |
| 2026-04-24 23:05 | 32.36246 | -64.70294 | 4 ft | 2 kts | 226° |
| 2026-04-24 23:06 | 32.36258 | -64.70279 | 4 ft | 2 kts | 191° |
| 2026-04-24 23:06 | 32.36269 | -64.70279 | 4 ft | 0 kts | 152° |
| 2026-04-24 23:08 | 32.36256 | -64.70247 | 4 ft | 7 kts | 100° |
| 2026-04-24 23:09 | 32.36262 | -64.70187 | 4 ft | 7 kts | 75° |
| 2026-04-24 23:09 | 32.36276 | -64.70134 | 4 ft | 6 kts | 70° |
| 2026-04-24 23:09 | 32.36294 | -64.70085 | 4 ft | 10 kts | 66° |
| 2026-04-24 23:09 | 32.36331 | -64.69981 | 4 ft | 17 kts | 67° |
| 2026-04-24 23:10 | 32.36375 | -64.69859 | 4 ft | 15 kts | 66° |
| 2026-04-24 23:10 | 32.36415 | -64.69747 | 4 ft | 15 kts | 67° |
| 2026-04-24 23:10 | 32.36452 | -64.69637 | 4 ft | 14 kts | 67° |
| 2026-04-24 23:10 | 32.36488 | -64.69538 | 4 ft | 12 kts | 66° |
| 2026-04-24 23:11 | 32.36520 | -64.69449 | 4 ft | 11 kts | 67° |
| 2026-04-24 23:11 | 32.36559 | -64.69341 | 4 ft | 18 kts | 68° |
| 2026-04-24 23:11 | 32.36605 | -64.69209 | 4 ft | 17 kts | 67° |
| 2026-04-24 23:11 | 32.36650 | -64.69085 | 5 ft | 15 kts | 67° |
| 2026-04-24 23:12 | 32.36687 | -64.68980 | 5 ft | 13 kts | 67° |
| 2026-04-24 23:12 | 32.36717 | -64.68885 | 5 ft | 12 kts | 81° |
| 2026-04-24 23:12 | 32.36706 | -64.68797 | 5 ft | 10 kts | 102° |
| 2026-04-24 23:12 | 32.36693 | -64.68721 | 5 ft | 9 kts | 102° |
| 2026-04-24 23:13 | 32.36676 | -64.68624 | 6 ft | 16 kts | 101° |
| 2026-04-24 23:13 | 32.36653 | -64.68492 | 5 ft | 17 kts | 102° |
| 2026-04-24 23:13 | 32.36630 | -64.68353 | 5 ft | 16 kts | 101° |
| 2026-04-24 23:13 | 32.36609 | -64.68228 | 5 ft | 15 kts | 101° |
| 2026-04-24 23:14 | 32.36588 | -64.68110 | 5 ft | 17 kts | 102° |
| 2026-04-24 23:14 | 32.36563 | -64.67960 | 5 ft | 18 kts | 101° |
| 2026-04-24 23:14 | 32.36538 | -64.67820 | 5 ft | 16 kts | 101° |
| 2026-04-24 23:14 | 32.36517 | -64.67695 | 6 ft | 15 kts | 102° |
| 2026-04-24 23:15 | 32.36493 | -64.67561 | 5 ft | 18 kts | 102° |
| 2026-04-24 23:15 | 32.36469 | -64.67422 | 6 ft | 16 kts | 102° |
| 2026-04-24 23:15 | 32.36447 | -64.67289 | 5 ft | 16 kts | 101° |
| 2026-04-24 23:15 | 32.36426 | -64.67168 | 6 ft | 14 kts | 101° |
| 2026-04-24 23:16 | 32.36406 | -64.67056 | 6 ft | 16 kts | 102° |
| 2026-04-24 23:16 | 32.36380 | -64.66908 | 6 ft | 19 kts | 100° |
| 2026-04-24 23:16 | 32.36356 | -64.66762 | 7 ft | 17 kts | 101° |
| 2026-04-24 23:16 | 32.36333 | -64.66635 | 7 ft | 15 kts | 101° |
| 2026-04-24 23:17 | 32.36313 | -64.66522 | 7 ft | 13 kts | 103° |
| 2026-04-24 23:17 | 32.36289 | -64.66423 | 7 ft | 12 kts | 109° |
| 2026-04-24 23:17 | 32.36264 | -64.66357 | 7 ft | 0 kts | 123° |
| 2026-04-24 23:17 | 32.36259 | -64.66350 | 7 ft | 2 kts | 129° |
| 2026-04-24 23:18 | 32.36242 | -64.66335 | 7 ft | 8 kts | 152° |
| 2026-04-24 23:18 | 32.36189 | -64.66337 | 9 ft | 7 kts | 196° |
| 2026-04-24 23:18 | 32.36152 | -64.66392 | 8 ft | 10 kts | 260° |
| 2026-04-24 23:18 | 32.36157 | -64.66443 | 8 ft | 0 kts | 281° |
| 2026-04-24 23:19 | 32.36160 | -64.66461 | 9 ft | 11 kts | 281° |
| 2026-04-24 23:19 | 32.36232 | -64.66880 | 8 ft | 96 kts | 281° |
| 2026-04-24 23:19 | 32.36418 | -64.67952 | 8 ft | 166 kts | 282° |
| 2026-04-24 23:20 | 32.36681 | -64.69315 | 769 ft | 167 kts | 279° |
| 2026-04-24 23:20 | 32.36930 | -64.70645 | 1801 ft | 164 kts | 278° |
| 2026-04-24 23:20 | 32.37164 | -64.72012 | 2304 ft | 177 kts | 278° |
| 2026-04-24 23:20 | 32.37391 | -64.73515 | 2700 ft | 196 kts | 277° |
| 2026-04-24 23:21 | 32.37651 | -64.75180 | 3152 ft | 215 kts | 278° |
| 2026-04-24 23:21 | 32.37951 | -64.76972 | 3664 ft | 234 kts | 279° |
| 2026-04-24 23:21 | 32.38286 | -64.78883 | 4454 ft | 238 kts | 280° |
| 2026-04-24 23:21 | 32.38613 | -64.80848 | 4857 ft | 246 kts | 275° |
| 2026-04-24 23:22 | 32.38561 | -64.82858 | 4993 ft | 246 kts | 265° |
| 2026-04-24 23:22 | 32.38447 | -64.84857 | 4942 ft | 242 kts | 268° |
| 2026-04-24 23:22 | 32.38356 | -64.86844 | 4944 ft | 242 kts | 266° |
| 2026-04-24 23:22 | 32.38254 | -64.88845 | 4978 ft | 245 kts | 267° |
| 2026-04-24 23:23 | 32.38162 | -64.90857 | 4987 ft | 246 kts | 267° |
| 2026-04-24 23:23 | 32.38072 | -64.92881 | 5414 ft | 245 kts | 268° |
| 2026-04-24 23:23 | 32.37975 | -64.94885 | 6394 ft | 247 kts | 268° |
| 2026-04-24 23:23 | 32.37860 | -64.96928 | 7209 ft | 250 kts | 267° |
| 2026-04-24 23:24 | 32.37742 | -64.98995 | 8047 ft | 253 kts | 267° |
| 2026-04-24 23:24 | 32.37627 | -65.01105 | 8783 ft | 261 kts | 268° |
| 2026-04-24 23:24 | 32.37511 | -65.03257 | 9564 ft | 263 kts | 268° |
| 2026-04-24 23:24 | 32.37396 | -65.05431 | 10340 ft | 267 kts | 268° |
| 2026-04-24 23:25 | 32.37275 | -65.07702 | 10718 ft | 287 kts | 268° |
| 2026-04-24 23:25 | 32.37183 | -65.10136 | 11031 ft | 306 kts | 270° |
| 2026-04-24 23:25 | 32.37170 | -65.12731 | 11305 ft | 325 kts | 271° |
| 2026-04-24 23:25 | 32.37200 | -65.15475 | 11702 ft | 337 kts | 272° |
| 2026-04-24 23:26 | 32.37242 | -65.18261 | 12428 ft | 340 kts | 272° |
| 2026-04-24 23:26 | 32.37267 | -65.21069 | 13121 ft | 343 kts | 271° |
| 2026-04-24 23:26 | 32.37272 | -65.23909 | 13737 ft | 347 kts | 271° |
| 2026-04-24 23:26 | 32.37268 | -65.26781 | 14371 ft | 351 kts | 270° |
| 2026-04-24 23:27 | 32.37261 | -65.29643 | 14994 ft | 354 kts | 270° |
| 2026-04-24 23:27 | 32.37253 | -65.32558 | 15626 ft | 356 kts | 270° |
| 2026-04-24 23:27 | 32.37246 | -65.35502 | 16241 ft | 359 kts | 270° |
| 2026-04-24 23:27 | 32.37241 | -65.38465 | 16842 ft | 362 kts | 270° |
| 2026-04-24 23:28 | 32.37235 | -65.41456 | 17419 ft | 365 kts | 270° |
| 2026-04-24 23:28 | 32.37229 | -65.44463 | 17998 ft | 367 kts | 270° |
| 2026-04-24 23:28 | 32.37222 | -65.47498 | 18567 ft | 370 kts | 270° |
| 2026-04-24 23:28 | 32.37215 | -65.50547 | 19105 ft | 373 kts | 270° |
| 2026-04-24 23:29 | 32.37209 | -65.53631 | 19636 ft | 375 kts | 270° |
| 2026-04-24 23:29 | 32.37201 | -65.56726 | 20150 ft | 378 kts | 270° |
| 2026-04-24 23:29 | 32.37193 | -65.59841 | 20645 ft | 380 kts | 270° |
| 2026-04-24 23:29 | 32.37185 | -65.62976 | 21121 ft | 383 kts | 270° |
| 2026-04-24 23:30 | 32.37179 | -65.66133 | 21584 ft | 385 kts | 270° |
| 2026-04-24 23:30 | 32.37170 | -65.69312 | 22021 ft | 388 kts | 270° |
| 2026-04-24 23:30 | 32.37172 | -65.72509 | 22456 ft | 390 kts | 270° |
| 2026-04-24 23:30 | 32.37182 | -65.75725 | 22859 ft | 392 kts | 270° |
| 2026-04-24 23:31 | 32.37195 | -65.78959 | 23241 ft | 394 kts | 270° |
| 2026-04-24 23:31 | 32.37207 | -65.82209 | 23620 ft | 397 kts | 270° |
| 2026-04-24 23:31 | 32.37216 | -65.85483 | 23990 ft | 399 kts | 270° |
| 2026-04-24 23:31 | 32.37221 | -65.88771 | 24363 ft | 401 kts | 270° |
| 2026-04-24 23:32 | 32.37226 | -65.92069 | 24731 ft | 403 kts | 270° |
| 2026-04-24 23:32 | 32.37230 | -65.95386 | 25082 ft | 404 kts | 270° |
| 2026-04-24 23:32 | 32.37234 | -65.98721 | 25420 ft | 405 kts | 270° |
| 2026-04-24 23:32 | 32.37238 | -66.02053 | 25758 ft | 407 kts | 270° |
| 2026-04-24 23:33 | 32.37242 | -66.05403 | 26079 ft | 408 kts | 270° |
| 2026-04-24 23:33 | 32.37243 | -66.07621 | 26283 ft | 409 kts | 270° |
| 2026-04-24 23:33 | 32.37245 | -66.12133 | 26691 ft | 410 kts | 270° |
| 2026-04-24 23:33 | 32.37244 | -66.15518 | 26975 ft | 412 kts | 270° |
| 2026-04-24 23:34 | 32.37239 | -66.18906 | 27255 ft | 413 kts | 270° |
| 2026-04-24 23:34 | 32.37236 | -66.22265 | 27525 ft | 414 kts | 270° |
| 2026-04-24 23:34 | 32.37233 | -66.25676 | 27779 ft | 415 kts | 270° |
| 2026-04-24 23:34 | 32.37228 | -66.29094 | 28024 ft | 416 kts | 270° |
| 2026-04-24 23:35 | 32.37224 | -66.32520 | 28268 ft | 417 kts | 270° |
| 2026-04-24 23:35 | 32.37218 | -66.35946 | 28580 ft | 415 kts | 270° |
| 2026-04-24 23:35 | 32.37209 | -66.39352 | 28903 ft | 414 kts | 270° |
| 2026-04-24 23:35 | 32.37191 | -66.42751 | 29223 ft | 412 kts | 268° |
| 2026-04-24 23:36 | 32.36838 | -66.46108 | 29536 ft | 412 kts | 259° |
| 2026-04-24 23:36 | 32.35966 | -66.49343 | 29857 ft | 414 kts | 249° |
| 2026-04-24 23:36 | 32.34608 | -66.52351 | 30175 ft | 417 kts | 241° |
| 2026-04-24 23:36 | 32.33022 | -66.55214 | 30476 ft | 416 kts | 241° |
| 2026-04-24 23:37 | 32.31322 | -66.57990 | 30766 ft | 420 kts | 232° |
| 2026-04-24 23:37 | 32.29039 | -66.60197 | 31036 ft | 432 kts | 216° |
| 2026-04-24 23:37 | 32.23453 | -66.63049 | 31592 ft | 439 kts | 208° |
| 2026-04-24 23:38 | 32.20616 | -66.64363 | 31875 ft | 438 kts | 208° |
| 2026-04-24 23:38 | 32.17771 | -66.65660 | 32157 ft | 438 kts | 208° |
| 2026-04-24 23:38 | 32.14934 | -66.66954 | 32450 ft | 436 kts | 208° |
| 2026-04-24 23:38 | 32.12109 | -66.68251 | 32732 ft | 435 kts | 208° |
| 2026-04-24 23:39 | 32.09290 | -66.69555 | 33008 ft | 435 kts | 208° |
| 2026-04-24 23:39 | 32.06482 | -66.70860 | 33276 ft | 434 kts | 208° |
| 2026-04-24 23:39 | 32.03684 | -66.72165 | 33536 ft | 433 kts | 208° |
| 2026-04-24 23:39 | 32.00885 | -66.73474 | 33792 ft | 432 kts | 208° |
| 2026-04-24 23:40 | 31.98089 | -66.74782 | 33925 ft | 433 kts | 208° |
| 2026-04-24 23:40 | 31.95284 | -66.76090 | 33952 ft | 434 kts | 208° |
| 2026-04-24 23:40 | 31.89681 | -66.78690 | 33955 ft | 433 kts | 208° |
| 2026-04-24 23:41 | 31.84067 | -66.81285 | 33951 ft | 433 kts | 208° |
| 2026-04-24 23:41 | 31.78449 | -66.83871 | 33952 ft | 434 kts | 208° |
| 2026-04-24 23:42 | 31.72831 | -66.86456 | 33955 ft | 433 kts | 208° |
| 2026-04-24 23:42 | 31.67219 | -66.89050 | 33947 ft | 433 kts | 208° |
| 2026-04-24 23:43 | 31.61657 | -66.91625 | 33948 ft | 433 kts | 208° |
| 2026-04-24 23:43 | 31.56042 | -66.94209 | 33954 ft | 433 kts | 208° |
| 2026-04-24 23:44 | 31.50434 | -66.96772 | 33960 ft | 433 kts | 208° |
| 2026-04-24 23:44 | 31.44818 | -66.99340 | 33960 ft | 433 kts | 208° |
| 2026-04-24 23:45 | 31.39205 | -67.01913 | 33952 ft | 433 kts | 208° |
| 2026-04-24 23:45 | 31.33599 | -67.04483 | 33956 ft | 433 kts | 208° |
| 2026-04-24 23:46 | 31.27997 | -67.07045 | 33954 ft | 432 kts | 208° |
| 2026-04-24 23:46 | 31.22393 | -67.09603 | 33959 ft | 432 kts | 208° |
| 2026-04-24 23:47 | 31.16798 | -67.12153 | 33964 ft | 432 kts | 208° |
| 2026-04-24 23:47 | 31.11200 | -67.14702 | 33966 ft | 431 kts | 208° |
| 2026-04-24 23:48 | 31.05604 | -67.17248 | 33955 ft | 431 kts | 208° |
| 2026-04-24 23:48 | 31.00009 | -67.19777 | 33962 ft | 431 kts | 208° |
| 2026-04-24 23:49 | 30.94427 | -67.22315 | 33960 ft | 430 kts | 208° |
| 2026-04-24 23:49 | 30.88846 | -67.24849 | 33962 ft | 430 kts | 208° |
| 2026-04-24 23:50 | 30.83267 | -67.27371 | 33961 ft | 430 kts | 207° |
| 2026-04-24 23:50 | 30.77683 | -67.29882 | 33966 ft | 430 kts | 208° |
| 2026-04-24 23:51 | 30.72121 | -67.32393 | 33965 ft | 429 kts | 208° |
| 2026-04-24 23:51 | 30.66555 | -67.34905 | 33970 ft | 429 kts | 207° |
| 2026-04-24 23:52 | 30.61937 | -67.36989 | 33966 ft | 428 kts | 208° |
| 2026-04-24 23:52 | 30.56384 | -67.39485 | 33966 ft | 428 kts | 207° |
| 2026-04-24 23:53 | 30.49930 | -67.42378 | 33967 ft | 427 kts | 207° |
| 2026-04-24 23:53 | 30.45287 | -67.44466 | 33961 ft | 427 kts | 207° |
| 2026-04-24 23:54 | 30.39754 | -67.46950 | 33962 ft | 426 kts | 207° |
| 2026-04-24 23:54 | 30.34221 | -67.49427 | 33964 ft | 426 kts | 207° |
| 2026-04-24 23:55 | 30.28695 | -67.51890 | 33965 ft | 426 kts | 207° |
| 2026-04-24 23:55 | 30.23200 | -67.54338 | 33962 ft | 425 kts | 207° |
| 2026-04-24 23:56 | 30.17682 | -67.56798 | 33962 ft | 425 kts | 207° |
| 2026-04-24 23:56 | 30.12163 | -67.59256 | 33963 ft | 425 kts | 207° |
| 2026-04-24 23:57 | 30.06644 | -67.61707 | 33962 ft | 425 kts | 207° |
| 2026-04-24 23:57 | 30.01130 | -67.64167 | 33966 ft | 425 kts | 207° |
| 2026-04-24 23:58 | 29.95616 | -67.66619 | 33961 ft | 424 kts | 207° |
| 2026-04-24 23:58 | 29.90105 | -67.69055 | 33964 ft | 423 kts | 207° |
| 2026-04-24 23:59 | 29.84603 | -67.71496 | 33964 ft | 423 kts | 207° |
| 2026-04-24 23:59 | 29.79100 | -67.73922 | 33960 ft | 423 kts | 207° |
| 2026-04-25 00:00 | 29.73601 | -67.76348 | 33962 ft | 423 kts | 207° |
| 2026-04-25 00:00 | 29.68137 | -67.78757 | 33960 ft | 423 kts | 207° |
| 2026-04-25 00:01 | 29.62601 | -67.81194 | 33965 ft | 423 kts | 207° |
| 2026-04-25 00:01 | 29.57135 | -67.83598 | 33963 ft | 424 kts | 207° |
| 2026-04-25 00:02 | 29.51634 | -67.86015 | 33956 ft | 423 kts | 207° |
| 2026-04-25 00:02 | 29.46134 | -67.88434 | 33963 ft | 423 kts | 207° |
| 2026-04-25 00:03 | 29.40640 | -67.90851 | 33955 ft | 423 kts | 207° |
| 2026-04-25 00:03 | 29.35139 | -67.93256 | 33954 ft | 423 kts | 207° |
| 2026-04-25 00:04 | 29.29641 | -67.95660 | 33960 ft | 423 kts | 207° |
| 2026-04-25 00:04 | 29.24143 | -67.98064 | 33960 ft | 422 kts | 207° |
| 2026-04-25 00:05 | 29.18650 | -68.00461 | 33965 ft | 422 kts | 207° |
| 2026-04-25 00:05 | 29.13165 | -68.02851 | 33961 ft | 423 kts | 207° |
| 2026-04-25 00:06 | 29.07669 | -68.05244 | 33966 ft | 422 kts | 207° |
| 2026-04-25 00:06 | 29.02186 | -68.07634 | 33963 ft | 422 kts | 207° |
| 2026-04-25 00:07 | 28.96710 | -68.10015 | 33969 ft | 421 kts | 207° |
| 2026-04-25 00:07 | 28.91218 | -68.12394 | 33964 ft | 421 kts | 207° |
| 2026-04-25 00:08 | 28.85745 | -68.14773 | 33966 ft | 421 kts | 207° |
| 2026-04-25 00:08 | 28.80280 | -68.17140 | 33966 ft | 420 kts | 207° |
| 2026-04-25 00:09 | 28.74847 | -68.19486 | 33963 ft | 420 kts | 207° |
| 2026-04-25 00:09 | 28.69392 | -68.21838 | 33972 ft | 419 kts | 207° |
| 2026-04-25 00:10 | 28.63942 | -68.24187 | 33974 ft | 418 kts | 207° |
| 2026-04-25 00:10 | 28.58497 | -68.26533 | 33972 ft | 418 kts | 207° |
| 2026-04-25 00:11 | 28.53055 | -68.28881 | 33973 ft | 418 kts | 207° |
| 2026-04-25 00:11 | 28.47629 | -68.31221 | 33974 ft | 417 kts | 207° |
| 2026-04-25 00:12 | 28.42201 | -68.33553 | 33967 ft | 417 kts | 207° |
| 2026-04-25 00:12 | 28.36782 | -68.35879 | 33972 ft | 416 kts | 207° |
| 2026-04-25 00:13 | 28.31365 | -68.38195 | 33967 ft | 416 kts | 207° |
| 2026-04-25 00:13 | 28.25951 | -68.40511 | 33962 ft | 416 kts | 207° |
| 2026-04-25 00:14 | 28.20584 | -68.42817 | 33962 ft | 415 kts | 207° |
| 2026-04-25 00:14 | 28.15176 | -68.45129 | 33961 ft | 415 kts | 207° |
| 2026-04-25 00:15 | 28.09762 | -68.47438 | 33959 ft | 416 kts | 207° |
| 2026-04-25 00:15 | 28.04351 | -68.49748 | 33960 ft | 416 kts | 207° |
| 2026-04-25 00:16 | 27.98939 | -68.52054 | 33960 ft | 416 kts | 207° |
| 2026-04-25 00:16 | 27.93203 | -68.53402 | 33961 ft | 432 kts | 189° |
| 2026-04-25 00:17 | 27.90170 | -68.53203 | 33960 ft | 443 kts | 179° |
| 2026-04-25 00:17 | 27.87125 | -68.52544 | 33959 ft | 446 kts | 177° |
| 2026-04-25 00:17 | 27.81038 | -68.51180 | 33966 ft | 446 kts | 177° |
| 2026-04-25 00:18 | 27.74955 | -68.49825 | 33962 ft | 445 kts | 177° |
| 2026-04-25 00:18 | 27.68871 | -68.48464 | 33963 ft | 446 kts | 177° |
| 2026-04-25 00:19 | 27.62794 | -68.47106 | 33956 ft | 445 kts | 177° |
| 2026-04-25 00:19 | 27.56726 | -68.45745 | 33960 ft | 445 kts | 177° |
| 2026-04-25 00:20 | 27.50648 | -68.44392 | 33955 ft | 445 kts | 177° |
| 2026-04-25 00:20 | 27.44613 | -68.43055 | 33952 ft | 445 kts | 177° |
| 2026-04-25 00:21 | 27.38503 | -68.41705 | 33961 ft | 445 kts | 177° |
| 2026-04-25 00:21 | 27.32461 | -68.40364 | 33960 ft | 445 kts | 177° |
| 2026-04-25 00:22 | 27.26392 | -68.39014 | 33964 ft | 445 kts | 177° |
| 2026-04-25 00:22 | 27.20320 | -68.37671 | 33965 ft | 444 kts | 177° |
| 2026-04-25 00:23 | 27.14259 | -68.36328 | 33961 ft | 444 kts | 177° |
| 2026-04-25 00:23 | 27.08189 | -68.34986 | 33960 ft | 444 kts | 177° |
| 2026-04-25 00:24 | 27.02126 | -68.33648 | 33964 ft | 444 kts | 177° |
| 2026-04-25 00:24 | 26.96068 | -68.32314 | 33964 ft | 444 kts | 177° |
| 2026-04-25 00:25 | 26.90010 | -68.30980 | 33966 ft | 444 kts | 177° |
| 2026-04-25 00:25 | 26.83956 | -68.29641 | 33971 ft | 443 kts | 177° |
| 2026-04-25 00:26 | 26.77902 | -68.28311 | 33968 ft | 443 kts | 177° |
| 2026-04-25 00:26 | 26.71852 | -68.26995 | 33966 ft | 443 kts | 177° |
| 2026-04-25 00:27 | 26.65805 | -68.25672 | 33969 ft | 443 kts | 177° |
| 2026-04-25 00:27 | 26.59756 | -68.24342 | 33967 ft | 443 kts | 177° |
| 2026-04-25 00:28 | 26.53710 | -68.23011 | 33968 ft | 443 kts | 177° |
| 2026-04-25 00:28 | 26.47659 | -68.21681 | 33972 ft | 443 kts | 177° |
| 2026-04-25 00:29 | 26.41606 | -68.20359 | 33970 ft | 443 kts | 178° |
| 2026-04-25 00:29 | 26.35553 | -68.19051 | 33967 ft | 443 kts | 178° |
| 2026-04-25 00:30 | 26.29500 | -68.17738 | 33966 ft | 443 kts | 178° |
| 2026-04-25 00:30 | 26.23495 | -68.16429 | 33970 ft | 443 kts | 178° |
| 2026-04-25 00:31 | 26.17450 | -68.15108 | 33969 ft | 443 kts | 178° |
| 2026-04-25 00:31 | 26.11405 | -68.13798 | 33970 ft | 443 kts | 178° |
| 2026-04-25 00:32 | 26.05361 | -68.12484 | 33968 ft | 443 kts | 178° |
| 2026-04-25 00:32 | 25.99309 | -68.11181 | 33972 ft | 443 kts | 178° |
| 2026-04-25 00:33 | 25.93262 | -68.09874 | 33968 ft | 443 kts | 178° |
| 2026-04-25 00:33 | 25.87210 | -68.08562 | 33970 ft | 443 kts | 178° |
| 2026-04-25 00:34 | 25.81165 | -68.07254 | 33972 ft | 443 kts | 178° |
| 2026-04-25 00:34 | 25.75115 | -68.05940 | 33968 ft | 443 kts | 178° |
| 2026-04-25 00:35 | 25.69070 | -68.04636 | 33969 ft | 443 kts | 178° |
| 2026-04-25 00:35 | 25.63023 | -68.03337 | 33975 ft | 442 kts | 178° |
| 2026-04-25 00:36 | 25.57018 | -68.02050 | 33976 ft | 442 kts | 178° |
| 2026-04-25 00:36 | 25.50980 | -68.00752 | 33975 ft | 442 kts | 178° |
| 2026-04-25 00:37 | 25.44940 | -67.99454 | 33973 ft | 442 kts | 178° |
| 2026-04-25 00:37 | 25.38906 | -67.98160 | 33972 ft | 442 kts | 178° |
| 2026-04-25 00:38 | 25.32866 | -67.96867 | 33969 ft | 442 kts | 178° |
| 2026-04-25 00:38 | 25.26829 | -67.95581 | 33969 ft | 442 kts | 178° |
| 2026-04-25 00:39 | 25.20794 | -67.94287 | 33969 ft | 442 kts | 178° |
| 2026-04-25 00:39 | 25.14758 | -67.92998 | 33969 ft | 442 kts | 178° |
| 2026-04-25 00:40 | 25.08728 | -67.91702 | 33970 ft | 442 kts | 178° |
| 2026-04-25 00:40 | 25.02689 | -67.90418 | 33973 ft | 441 kts | 178° |
| 2026-04-25 00:41 | 24.96695 | -67.89149 | 33974 ft | 442 kts | 177° |
| 2026-04-25 00:41 | 24.90665 | -67.87861 | 33973 ft | 441 kts | 177° |
| 2026-04-25 00:42 | 24.84634 | -67.86575 | 33973 ft | 441 kts | 177° |
| 2026-04-25 00:42 | 24.78608 | -67.85292 | 33975 ft | 441 kts | 177° |
| 2026-04-25 00:43 | 24.72589 | -67.84014 | 33975 ft | 441 kts | 177° |
| 2026-04-25 00:43 | 24.66574 | -67.82739 | 33976 ft | 440 kts | 177° |
| 2026-04-25 00:44 | 24.60563 | -67.81473 | 33974 ft | 440 kts | 177° |
| 2026-04-25 00:44 | 24.55566 | -67.80419 | 33974 ft | 440 kts | 177° |
| 2026-04-25 00:45 | 24.49556 | -67.79144 | 33975 ft | 440 kts | 177° |
| 2026-04-25 00:45 | 24.43551 | -67.77873 | 33975 ft | 439 kts | 177° |
| 2026-04-25 00:46 | 24.37553 | -67.76611 | 33976 ft | 439 kts | 177° |
| 2026-04-25 00:46 | 24.31592 | -67.76165 | 33976 ft | 420 kts | 195° |
| 2026-04-25 00:47 | 24.28783 | -67.76874 | 33971 ft | 411 kts | 205° |
| 2026-04-25 00:47 | 24.23924 | -67.79897 | 33970 ft | 399 kts | 224° |
| 2026-04-25 00:48 | 24.20388 | -67.84508 | 33960 ft | 396 kts | 235° |
| 2026-04-25 00:48 | 24.17150 | -67.89398 | 33957 ft | 396 kts | 235° |
| 2026-04-25 00:49 | 24.13898 | -67.94272 | 33964 ft | 397 kts | 234° |
| 2026-04-25 00:49 | 24.10637 | -67.99149 | 33963 ft | 397 kts | 235° |
| 2026-04-25 00:50 | 24.07384 | -68.04038 | 33968 ft | 397 kts | 234° |
| 2026-04-25 00:50 | 24.04121 | -68.08929 | 33973 ft | 398 kts | 234° |
| 2026-04-25 00:51 | 24.00867 | -68.13816 | 33974 ft | 398 kts | 234° |
| 2026-04-25 00:51 | 23.97607 | -68.18704 | 33977 ft | 398 kts | 234° |
| 2026-04-25 00:52 | 23.94339 | -68.23586 | 33975 ft | 398 kts | 234° |
| 2026-04-25 00:52 | 23.91025 | -68.28429 | 33978 ft | 398 kts | 233° |
| 2026-04-25 00:53 | 23.87646 | -68.33165 | 33978 ft | 398 kts | 233° |
| 2026-04-25 00:53 | 23.84237 | -68.37925 | 33980 ft | 398 kts | 233° |
| 2026-04-25 00:54 | 23.80840 | -68.42691 | 33976 ft | 398 kts | 233° |
| 2026-04-25 00:54 | 23.77448 | -68.47468 | 33973 ft | 398 kts | 233° |
| 2026-04-25 00:55 | 23.74055 | -68.52247 | 33973 ft | 398 kts | 233° |
| 2026-04-25 00:55 | 23.70662 | -68.57022 | 33975 ft | 398 kts | 233° |
| 2026-04-25 00:56 | 23.67260 | -68.61788 | 33977 ft | 398 kts | 233° |
| 2026-04-25 00:56 | 23.63865 | -68.66552 | 33977 ft | 397 kts | 233° |
| 2026-04-25 00:57 | 23.60475 | -68.71303 | 33978 ft | 397 kts | 233° |
| 2026-04-25 00:57 | 23.57078 | -68.76055 | 33977 ft | 397 kts | 233° |
| 2026-04-25 00:58 | 23.53683 | -68.80803 | 33977 ft | 397 kts | 233° |
| 2026-04-25 00:58 | 23.50285 | -68.85542 | 33975 ft | 397 kts | 233° |
| 2026-04-25 00:59 | 23.46888 | -68.90284 | 33975 ft | 397 kts | 233° |
| 2026-04-25 00:59 | 23.43496 | -68.95024 | 33974 ft | 397 kts | 233° |
| 2026-04-25 01:00 | 23.40098 | -68.99766 | 33976 ft | 397 kts | 233° |
| 2026-04-25 01:00 | 23.36704 | -69.04492 | 33974 ft | 396 kts | 232° |
| 2026-04-25 01:01 | 23.33302 | -69.09214 | 33975 ft | 396 kts | 232° |
| 2026-04-25 01:01 | 23.29905 | -69.13935 | 33978 ft | 396 kts | 233° |
| 2026-04-25 01:02 | 23.26512 | -69.18650 | 33975 ft | 395 kts | 232° |
| 2026-04-25 01:02 | 23.23121 | -69.23357 | 33975 ft | 395 kts | 232° |
| 2026-04-25 01:03 | 23.19730 | -69.28060 | 33973 ft | 395 kts | 232° |
| 2026-04-25 01:03 | 23.16331 | -69.32757 | 33973 ft | 395 kts | 232° |
| 2026-04-25 01:04 | 23.12931 | -69.37450 | 33973 ft | 395 kts | 232° |
| 2026-04-25 01:04 | 23.09550 | -69.42108 | 33975 ft | 395 kts | 232° |
| 2026-04-25 01:05 | 23.06153 | -69.46804 | 33968 ft | 395 kts | 232° |
| 2026-04-25 01:05 | 23.02756 | -69.51490 | 33973 ft | 395 kts | 232° |
| 2026-04-25 01:06 | 22.99365 | -69.56170 | 33970 ft | 394 kts | 232° |
| 2026-04-25 01:06 | 22.95966 | -69.60848 | 33963 ft | 395 kts | 232° |
| 2026-04-25 01:07 | 22.92561 | -69.65523 | 33972 ft | 395 kts | 232° |
| 2026-04-25 01:07 | 22.89160 | -69.70193 | 33966 ft | 395 kts | 232° |
| 2026-04-25 01:08 | 22.85765 | -69.74862 | 33970 ft | 394 kts | 232° |
| 2026-04-25 01:08 | 22.82358 | -69.79531 | 33966 ft | 394 kts | 232° |
| 2026-04-25 01:09 | 22.78957 | -69.84190 | 33967 ft | 394 kts | 232° |
| 2026-04-25 01:09 | 22.75559 | -69.88847 | 33962 ft | 394 kts | 232° |
| 2026-04-25 01:10 | 22.71646 | -69.93015 | 33962 ft | 396 kts | 224° |
| 2026-04-25 01:10 | 22.67545 | -69.96929 | 33954 ft | 395 kts | 224° |
| 2026-04-25 01:11 | 22.63419 | -70.00864 | 33958 ft | 395 kts | 224° |
| 2026-04-25 01:11 | 22.59292 | -70.04802 | 33960 ft | 395 kts | 223° |
| 2026-04-25 01:12 | 22.55169 | -70.08731 | 33952 ft | 395 kts | 224° |
| 2026-04-25 01:12 | 22.51040 | -70.12661 | 33954 ft | 395 kts | 224° |
| 2026-04-25 01:13 | 22.46913 | -70.16587 | 33952 ft | 395 kts | 224° |
| 2026-04-25 01:13 | 22.42790 | -70.20511 | 33951 ft | 395 kts | 224° |
| 2026-04-25 01:14 | 22.38663 | -70.24434 | 33951 ft | 395 kts | 223° |
| 2026-04-25 01:14 | 22.34534 | -70.28347 | 33955 ft | 395 kts | 223° |
| 2026-04-25 01:15 | 22.30448 | -70.32313 | 33957 ft | 395 kts | 225° |
| 2026-04-25 01:15 | 22.26440 | -70.36361 | 33947 ft | 394 kts | 225° |
| 2026-04-25 01:16 | 22.22437 | -70.40407 | 33951 ft | 394 kts | 225° |
| 2026-04-25 01:16 | 22.18410 | -70.44431 | 33960 ft | 395 kts | 225° |
| 2026-04-25 01:17 | 22.14371 | -70.48453 | 33936 ft | 396 kts | 224° |
| 2026-04-25 01:17 | 22.10314 | -70.52487 | 33928 ft | 398 kts | 224° |
| 2026-04-25 01:18 | 22.06237 | -70.56542 | 33927 ft | 399 kts | 224° |
| 2026-04-25 01:18 | 22.02180 | -70.60578 | 33929 ft | 399 kts | 224° |
| 2026-04-25 01:19 | 21.98092 | -70.64648 | 33932 ft | 400 kts | 225° |
| 2026-04-25 01:19 | 21.93969 | -70.68749 | 33934 ft | 401 kts | 225° |
| 2026-04-25 01:20 | 21.89853 | -70.72830 | 33937 ft | 403 kts | 224° |
| 2026-04-25 01:20 | 21.85754 | -70.76880 | 33937 ft | 403 kts | 224° |
| 2026-04-25 01:21 | 21.81614 | -70.80952 | 33938 ft | 404 kts | 223° |
| 2026-04-25 01:21 | 21.77283 | -70.84824 | 33944 ft | 405 kts | 221° |
| 2026-04-25 01:22 | 21.72849 | -70.88561 | 33936 ft | 406 kts | 220° |
| 2026-04-25 01:22 | 21.68415 | -70.92336 | 33935 ft | 407 kts | 221° |
| 2026-04-25 01:23 | 21.64008 | -70.96156 | 33945 ft | 407 kts | 221° |
| 2026-04-25 01:23 | 21.59602 | -70.99994 | 33940 ft | 408 kts | 221° |
| 2026-04-25 01:24 | 21.55190 | -71.03823 | 33937 ft | 408 kts | 221° |
| 2026-04-25 01:24 | 21.50768 | -71.07646 | 33934 ft | 409 kts | 221° |
| 2026-04-25 01:25 | 21.46332 | -71.11479 | 33936 ft | 409 kts | 221° |
| 2026-04-25 01:25 | 21.41698 | -71.15031 | 33936 ft | 411 kts | 215° |
| 2026-04-25 01:26 | 21.36876 | -71.18268 | 33938 ft | 412 kts | 215° |
| 2026-04-25 01:26 | 21.32016 | -71.21533 | 33938 ft | 412 kts | 215° |
| 2026-04-25 01:27 | 21.27154 | -71.24799 | 33940 ft | 412 kts | 215° |
| 2026-04-25 01:27 | 21.22294 | -71.28066 | 33951 ft | 412 kts | 215° |
| 2026-04-25 01:28 | 21.14997 | -71.32961 | 33942 ft | 413 kts | 215° |
| 2026-04-25 01:28 | 21.10130 | -71.36219 | 33950 ft | 413 kts | 215° |
| 2026-04-25 01:29 | 21.05250 | -71.39462 | 33950 ft | 413 kts | 214° |
| 2026-04-25 01:29 | 21.00264 | -71.42525 | 33946 ft | 414 kts | 212° |
| 2026-04-25 01:30 | 20.95215 | -71.45480 | 33946 ft | 413 kts | 212° |
| 2026-04-25 01:30 | 20.90181 | -71.48453 | 33952 ft | 413 kts | 212° |
| 2026-04-25 01:31 | 20.85164 | -71.51461 | 33949 ft | 413 kts | 212° |
| 2026-04-25 01:31 | 20.80156 | -71.54475 | 33947 ft | 413 kts | 212° |
| 2026-04-25 01:32 | 20.75987 | -71.56977 | 33943 ft | 413 kts | 212° |
| 2026-04-25 01:32 | 20.70973 | -71.59982 | 33951 ft | 413 kts | 212° |
| 2026-04-25 01:33 | 20.65962 | -71.62982 | 33954 ft | 413 kts | 212° |
| 2026-04-25 01:33 | 20.60946 | -71.65980 | 33953 ft | 413 kts | 212° |
| 2026-04-25 01:34 | 20.55926 | -71.68979 | 33951 ft | 413 kts | 212° |
| 2026-04-25 01:34 | 20.50911 | -71.71961 | 33958 ft | 412 kts | 212° |
| 2026-04-25 01:35 | 20.45905 | -71.74943 | 33948 ft | 412 kts | 212° |
| 2026-04-25 01:35 | 20.40759 | -71.77651 | 33951 ft | 417 kts | 202° |
| 2026-04-25 01:36 | 20.35111 | -71.79175 | 33946 ft | 420 kts | 198° |
| 2026-04-25 01:36 | 20.29435 | -71.80642 | 33947 ft | 419 kts | 198° |
| 2026-04-25 01:37 | 20.23805 | -71.82085 | 33945 ft | 419 kts | 198° |
| 2026-04-25 01:37 | 20.18142 | -71.83551 | 33949 ft | 419 kts | 198° |
| 2026-04-25 01:38 | 20.12490 | -71.85022 | 33950 ft | 418 kts | 198° |
| 2026-04-25 01:38 | 20.06834 | -71.86490 | 33952 ft | 418 kts | 198° |
| 2026-04-25 01:39 | 20.01177 | -71.87953 | 33949 ft | 419 kts | 198° |
| 2026-04-25 01:39 | 19.95516 | -71.89412 | 33951 ft | 419 kts | 198° |
| 2026-04-25 01:40 | 19.89851 | -71.90869 | 33951 ft | 419 kts | 198° |
| 2026-04-25 01:40 | 19.84190 | -71.92329 | 33958 ft | 418 kts | 198° |
| 2026-04-25 01:41 | 19.78534 | -71.93787 | 33959 ft | 418 kts | 198° |
| 2026-04-25 01:41 | 19.72874 | -71.95237 | 33959 ft | 418 kts | 198° |
| 2026-04-25 01:42 | 19.67214 | -71.96688 | 33958 ft | 419 kts | 198° |
| 2026-04-25 01:42 | 19.61812 | -71.98795 | 33948 ft | 411 kts | 210° |
| 2026-04-25 01:43 | 19.56701 | -72.01531 | 33942 ft | 412 kts | 210° |
| 2026-04-25 01:43 | 19.51613 | -72.04229 | 33953 ft | 412 kts | 210° |
| 2026-04-25 01:44 | 19.46488 | -72.06936 | 33606 ft | 411 kts | 210° |
| 2026-04-25 01:44 | 19.43928 | -72.08294 | 33351 ft | 412 kts | 210° |
| 2026-04-25 01:44 | 19.41365 | -72.09655 | 32518 ft | 413 kts | 210° |
| 2026-04-25 01:45 | 19.38791 | -72.11020 | 31592 ft | 414 kts | 210° |
| 2026-04-25 01:45 | 19.36210 | -72.12389 | 30616 ft | 416 kts | 210° |
| 2026-04-25 01:45 | 19.33618 | -72.13766 | 29632 ft | 419 kts | 210° |
| 2026-04-25 01:45 | 19.31005 | -72.15151 | 28577 ft | 422 kts | 210° |
| 2026-04-25 01:46 | 19.28368 | -72.16549 | 27446 ft | 425 kts | 210° |
| 2026-04-25 01:46 | 19.25721 | -72.17950 | 26311 ft | 427 kts | 210° |
| 2026-04-25 01:46 | 19.23059 | -72.19355 | 25387 ft | 425 kts | 210° |
| 2026-04-25 01:46 | 19.20428 | -72.20741 | 24614 ft | 420 kts | 209° |
| 2026-04-25 01:47 | 19.17840 | -72.22130 | 23805 ft | 412 kts | 212° |
| 2026-04-25 01:47 | 19.15496 | -72.23814 | 23025 ft | 405 kts | 221° |
| 2026-04-25 01:47 | 19.13470 | -72.25854 | 22278 ft | 399 kts | 229° |
| 2026-04-25 01:47 | 19.11629 | -72.27988 | 21554 ft | 396 kts | 229° |
| 2026-04-25 01:48 | 19.09754 | -72.30154 | 20836 ft | 393 kts | 229° |
| 2026-04-25 01:48 | 19.07912 | -72.32281 | 20147 ft | 391 kts | 229° |
| 2026-04-25 01:48 | 19.06108 | -72.34360 | 19489 ft | 388 kts | 229° |
| 2026-04-25 01:48 | 19.04286 | -72.36454 | 18837 ft | 385 kts | 229° |
| 2026-04-25 01:49 | 19.02477 | -72.38527 | 18219 ft | 382 kts | 229° |
| 2026-04-25 01:49 | 19.00682 | -72.40581 | 17628 ft | 379 kts | 229° |
| 2026-04-25 01:49 | 18.98889 | -72.42608 | 17034 ft | 372 kts | 227° |
| 2026-04-25 01:49 | 18.97143 | -72.44609 | 16510 ft | 370 kts | 229° |
| 2026-04-25 01:50 | 18.95425 | -72.46594 | 16055 ft | 364 kts | 229° |
| 2026-04-25 01:50 | 18.93721 | -72.48556 | 15536 ft | 358 kts | 229° |
| 2026-04-25 01:50 | 18.92040 | -72.50483 | 14989 ft | 357 kts | 229° |
| 2026-04-25 01:50 | 18.90363 | -72.52418 | 14442 ft | 357 kts | 229° |
| 2026-04-25 01:51 | 18.88686 | -72.54346 | 13883 ft | 356 kts | 228° |
| 2026-04-25 01:51 | 18.87016 | -72.56263 | 13313 ft | 354 kts | 227° |
| 2026-04-25 01:51 | 18.85347 | -72.58176 | 12696 ft | 357 kts | 228° |
| 2026-04-25 01:51 | 18.83663 | -72.60101 | 12085 ft | 355 kts | 227° |
| 2026-04-25 01:52 | 18.81979 | -72.62017 | 11419 ft | 357 kts | 228° |
| 2026-04-25 01:52 | 18.80301 | -72.63936 | 10972 ft | 351 kts | 227° |
| 2026-04-25 01:52 | 18.78684 | -72.65783 | 10848 ft | 335 kts | 226° |
| 2026-04-25 01:52 | 18.76938 | -72.67321 | 10722 ft | 321 kts | 213° |
| 2026-04-25 01:53 | 18.75001 | -72.68396 | 10597 ft | 309 kts | 206° |
| 2026-04-25 01:53 | 18.73071 | -72.69283 | 10449 ft | 298 kts | 203° |
| 2026-04-25 01:53 | 18.71148 | -72.70056 | 10168 ft | 293 kts | 200° |
| 2026-04-25 01:53 | 18.69223 | -72.70729 | 9931 ft | 290 kts | 198° |
| 2026-04-25 01:54 | 18.67281 | -72.71301 | 9810 ft | 290 kts | 195° |
| 2026-04-25 01:54 | 18.65307 | -72.71767 | 9684 ft | 291 kts | 192° |
| 2026-04-25 01:54 | 18.63306 | -72.72128 | 9241 ft | 295 kts | 189° |
| 2026-04-25 01:54 | 18.61283 | -72.72378 | 8548 ft | 291 kts | 186° |
| 2026-04-25 01:55 | 18.59301 | -72.72437 | 7835 ft | 288 kts | 172° |
| 2026-04-25 01:55 | 18.57478 | -72.71650 | 7143 ft | 284 kts | 142° |
| 2026-04-25 01:55 | 18.56288 | -72.70025 | 6488 ft | 281 kts | 111° |
| 2026-04-25 01:55 | 18.55999 | -72.68043 | 6249 ft | 271 kts | 88° |
| 2026-04-25 01:56 | 18.56100 | -72.66102 | 6103 ft | 259 kts | 87° |
| 2026-04-25 01:56 | 18.56204 | -72.64247 | 5980 ft | 247 kts | 87° |
| 2026-04-25 01:56 | 18.56297 | -72.62488 | 5862 ft | 236 kts | 88° |
| 2026-04-25 01:56 | 18.56386 | -72.60777 | 5597 ft | 232 kts | 88° |
| 2026-04-25 01:57 | 18.56562 | -72.57397 | 4984 ft | 229 kts | 89° |
| 2026-04-25 01:57 | 18.56647 | -72.55734 | 4685 ft | 227 kts | 88° |
| 2026-04-25 01:57 | 18.56741 | -72.54073 | 4402 ft | 227 kts | 88° |
| 2026-04-25 01:58 | 18.56827 | -72.52422 | 4093 ft | 224 kts | 88° |
| 2026-04-25 01:58 | 18.56905 | -72.50788 | 3791 ft | 223 kts | 88° |
| 2026-04-25 01:58 | 18.56989 | -72.49161 | 3494 ft | 221 kts | 87° |
| 2026-04-25 01:58 | 18.57072 | -72.47549 | 3200 ft | 219 kts | 88° |
| 2026-04-25 01:59 | 18.57153 | -72.45952 | 2915 ft | 217 kts | 88° |
| 2026-04-25 01:59 | 18.57235 | -72.44374 | 2626 ft | 215 kts | 88° |
| 2026-04-25 01:59 | 18.57317 | -72.42813 | 2370 ft | 212 kts | 87° |
| 2026-04-25 01:59 | 18.57392 | -72.41308 | 2076 ft | 200 kts | 87° |
| 2026-04-25 02:00 | 18.57461 | -72.39917 | 1806 ft | 179 kts | 86° |
| 2026-04-25 02:00 | 18.57524 | -72.38692 | 1599 ft | 158 kts | 86° |
| 2026-04-25 02:00 | 18.57581 | -72.37588 | 1395 ft | 146 kts | 86° |
| 2026-04-25 02:00 | 18.57634 | -72.36554 | 1207 ft | 142 kts | 86° |
| 2026-04-25 02:01 | 18.57687 | -72.35508 | 1021 ft | 140 kts | 86° |
| 2026-04-25 02:01 | 18.57739 | -72.34486 | 833 ft | 139 kts | 86° |
| 2026-04-25 02:01 | 18.57785 | -72.33481 | 647 ft | 139 kts | 86° |
| 2026-04-25 02:01 | 18.57839 | -72.32467 | 467 ft | 139 kts | 85° |
| 2026-04-25 02:02 | 18.57897 | -72.31454 | 276 ft | 138 kts | 86° |
| 2026-04-25 02:02 | 18.57945 | -72.30444 | 98 ft | 137 kts | 87° |
| 2026-04-25 02:02 | 18.57990 | -72.29595 | 92 ft | 90 kts | 87° |
| 2026-04-25 02:02 | 18.58021 | -72.29113 | 99 ft | 46 kts | 85° |
| 2026-04-25 02:03 | 18.58030 | -72.28821 | 105 ft | 37 kts | 86° |
| 2026-04-25 02:03 | 18.58042 | -72.28565 | 109 ft | 32 kts | 89° |
| 2026-04-25 02:03 | 18.58085 | -72.28431 | 112 ft | 13 kts | 59° |
| 2026-04-25 02:03 | 18.58052 | -72.28412 | 113 ft | 6 kts | 225° |
| 2026-04-25 02:04 | 18.58044 | -72.28493 | 111 ft | 16 kts | 266° |
| 2026-04-25 02:04 | 18.58036 | -72.28624 | 108 ft | 20 kts | 266° |
| 2026-04-25 02:04 | 18.58028 | -72.28784 | 105 ft | 24 kts | 267° |
| 2026-04-25 02:04 | 18.58018 | -72.28968 | 103 ft | 27 kts | 266° |
| 2026-04-25 02:05 | 18.58007 | -72.29178 | 98 ft | 31 kts | 267° |
| 2026-04-25 02:05 | 18.57996 | -72.29380 | 96 ft | 23 kts | 265° |
| 2026-04-25 02:05 | 18.57945 | -72.29467 | 95 ft | 9 kts | 190° |
| 2026-04-25 02:05 | 18.57940 | -72.29467 | 95 ft | 0 kts | 188° |
| 2026-04-25 02:06 | 18.57935 | -72.29466 | 96 ft | 4 kts | 177° |
| 2026-04-25 02:06 | 18.57875 | -72.29464 | 96 ft | 10 kts | 178° |
| 2026-04-25 02:06 | 18.57806 | -72.29460 | 97 ft | 10 kts | 177° |
| 2026-04-25 02:06 | 18.57734 | -72.29457 | 98 ft | 12 kts | 179° |
| 2026-04-25 02:07 | 18.57684 | -72.29506 | 95 ft | 10 kts | 229° |
| 2026-04-25 02:07 | 18.57639 | -72.29525 | 95 ft | 4 kts | 185° |
| 2026-04-25 02:07 | 18.57618 | -72.29525 | 95 ft | 2 kts | 179° |
| 2026-04-25 02:07 | 18.57617 | -72.29525 | 94 ft | 0 kts | 179° |